Killdeer, North Dakota
Current Conditions -  °F | °C
As of 6:56 PM on Friday 24 Oct 2014 (Local Time) from KDIK Reporting Station
Clear Clear  
Wind Chill: 39°   Ceiling: Unl
Heat Index: 44°   Visibility: 10mi
Dew Point: 29°   Wind: 9mph
Humidity: 55%   Direction: 270°W
Pressure: 30.02"   Gusts: NA
Location:  47.37°N, 102.75°W
Report Text: KDIK 250056Z AUTO 27008KT 10SM CLR 07/M02 A3002 RMK AO2 SLP180 T00671017
Loading
Personal Weather Stations






























Interactive Weather Map
Tropical Storm Tracking
New forecast layout! Learn more

10-Day Weather Forecast

Advertisements
Track Severe Weather on mobile